sensor_id;sensor_type;location;lat;lon;timestamp;temperature;humidity
51725;DHT22;37801;53.224;6.552;2022-07-23T00:02:06;16.20;99.90
51725;DHT22;37801;53.224;6.552;2022-07-23T00:04:32;16.20;99.90
51725;DHT22;37801;53.224;6.552;2022-07-23T00:06:58;16.20;99.90
51725;DHT22;37801;53.224;6.552;2022-07-23T00:09:24;16.20;99.90
51725;DHT22;37801;53.224;6.552;2022-07-23T00:11:50;16.10;99.90
51725;DHT22;37801;53.224;6.552;2022-07-23T00:14:16;16.10;99.90
51725;DHT22;37801;53.224;6.552;2022-07-23T00:16:41;16.10;99.90
51725;DHT22;37801;53.224;6.552;2022-07-23T00:19:07;16.10;99.90
51725;DHT22;37801;53.224;6.552;2022-07-23T00:21:33;16.00;99.90
51725;DHT22;37801;53.224;6.552;2022-07-23T00:23:58;16.00;99.90
51725;DHT22;37801;53.224;6.552;2022-07-23T00:26:24;16.00;99.90
51725;DHT22;37801;53.224;6.552;2022-07-23T00:28:50;16.00;99.90
51725;DHT22;37801;53.224;6.552;2022-07-23T00:31:16;15.90;99.90
51725;DHT22;37801;53.224;6.552;2022-07-23T00:33:41;15.90;99.90
51725;DHT22;37801;53.224;6.552;2022-07-23T00:36:07;15.90;99.90
51725;DHT22;37801;53.224;6.552;2022-07-23T00:38:33;15.80;99.90
51725;DHT22;37801;53.224;6.552;2022-07-23T00:40:59;15.80;99.90
51725;DHT22;37801;53.224;6.552;2022-07-23T00:43:25;15.80;99.90
51725;DHT22;37801;53.224;6.552;2022-07-23T00:45:50;15.80;99.90
51725;DHT22;37801;53.224;6.552;2022-07-23T00:48:16;15.70;99.90
51725;DHT22;37801;53.224;6.552;2022-07-23T00:50:42;15.60;99.90
51725;DHT22;37801;53.224;6.552;2022-07-23T00:53:08;15.60;99.90
51725;DHT22;37801;53.224;6.552;2022-07-23T00:55:34;15.50;99.90
51725;DHT22;37801;53.224;6.552;2022-07-23T00:58:01;15.50;99.90
51725;DHT22;37801;53.224;6.552;2022-07-23T01:00:27;15.50;99.90
51725;DHT22;37801;53.224;6.552;2022-07-23T01:02:53;15.40;99.90
51725;DHT22;37801;53.224;6.552;2022-07-23T01:05:19;15.40;99.90
51725;DHT22;37801;53.224;6.552;2022-07-23T01:07:51;15.40;99.90
51725;DHT22;37801;53.224;6.552;2022-07-23T01:10:18;15.40;99.90
51725;DHT22;37801;53.224;6.552;2022-07-23T01:13:09;15.40;99.90
51725;DHT22;37801;53.224;6.552;2022-07-23T01:15:36;15.40;99.90
51725;DHT22;37801;53.224;6.552;2022-07-23T01:18:04;15.50;99.90
51725;DHT22;37801;53.224;6.552;2022-07-23T01:20:31;15.60;99.90
51725;DHT22;37801;53.224;6.552;2022-07-23T01:22:57;15.60;99.90
51725;DHT22;37801;53.224;6.552;2022-07-23T01:25:23;15.60;99.90
51725;DHT22;37801;53.224;6.552;2022-07-23T01:27:50;15.70;99.90
51725;DHT22;37801;53.224;6.552;2022-07-23T01:30:17;15.60;99.90
51725;DHT22;37801;53.224;6.552;2022-07-23T01:32:43;15.70;99.90
51725;DHT22;37801;53.224;6.552;2022-07-23T01:35:09;15.70;99.90
51725;DHT22;37801;53.224;6.552;2022-07-23T01:37:35;15.70;99.90
51725;DHT22;37801;53.224;6.552;2022-07-23T01:40:02;15.70;99.90
51725;DHT22;37801;53.224;6.552;2022-07-23T01:42:28;15.70;99.90
51725;DHT22;37801;53.224;6.552;2022-07-23T01:44:53;15.70;99.90
51725;DHT22;37801;53.224;6.552;2022-07-23T01:47:19;15.60;99.90
51725;DHT22;37801;53.224;6.552;2022-07-23T01:49:45;15.70;99.90
51725;DHT22;37801;53.224;6.552;2022-07-23T01:52:11;15.60;99.90
51725;DHT22;37801;53.224;6.552;2022-07-23T01:54:38;15.60;99.90
51725;DHT22;37801;53.224;6.552;2022-07-23T01:57:05;15.60;99.90
51725;DHT22;37801;53.224;6.552;2022-07-23T01:59:31;15.70;99.90
51725;DHT22;37801;53.224;6.552;2022-07-23T02:01:57;15.60;99.90
51725;DHT22;37801;53.224;6.552;2022-07-23T02:04:24;15.70;99.90
51725;DHT22;37801;53.224;6.552;2022-07-23T02:06:50;15.60;99.90
51725;DHT22;37801;53.224;6.552;2022-07-23T02:09:16;15.70;99.90
51725;DHT22;37801;53.224;6.552;2022-07-23T02:11:42;15.70;99.90
51725;DHT22;37801;53.224;6.552;2022-07-23T02:14:08;15.70;99.90
51725;DHT22;37801;53.224;6.552;2022-07-23T02:16:34;15.80;99.90
51725;DHT22;37801;53.224;6.552;2022-07-23T02:18:59;15.80;99.90
51725;DHT22;37801;53.224;6.552;2022-07-23T02:21:25;15.80;99.90
51725;DHT22;37801;53.224;6.552;2022-07-23T02:23:51;15.80;99.90
51725;DHT22;37801;53.224;6.552;2022-07-23T02:26:16;15.80;99.90
51725;DHT22;37801;53.224;6.552;2022-07-23T02:28:42;15.90;99.90
51725;DHT22;37801;53.224;6.552;2022-07-23T02:31:08;15.90;99.90
51725;DHT22;37801;53.224;6.552;2022-07-23T02:33:34;15.90;99.90
51725;DHT22;37801;53.224;6.552;2022-07-23T02:35:59;15.90;99.90
51725;DHT22;37801;53.224;6.552;2022-07-23T02:38:26;16.00;99.90
51725;DHT22;37801;53.224;6.552;2022-07-23T02:40:51;16.00;99.90
51725;DHT22;37801;53.224;6.552;2022-07-23T02:43:17;16.10;99.90
51725;DHT22;37801;53.224;6.552;2022-07-23T02:45:43;16.10;99.90
51725;DHT22;37801;53.224;6.552;2022-07-23T02:48:09;16.10;99.90
51725;DHT22;37801;53.224;6.552;2022-07-23T02:50:34;16.10;99.90
51725;DHT22;37801;53.224;6.552;2022-07-23T02:53:00;16.10;99.90
51725;DHT22;37801;53.224;6.552;2022-07-23T02:55:26;16.10;99.90
51725;DHT22;37801;53.224;6.552;2022-07-23T02:57:52;16.10;99.90
51725;DHT22;37801;53.224;6.552;2022-07-23T03:00:18;16.10;99.90
51725;DHT22;37801;53.224;6.552;2022-07-23T03:02:44;16.00;99.90
51725;DHT22;37801;53.224;6.552;2022-07-23T03:05:09;16.10;99.90
51725;DHT22;37801;53.224;6.552;2022-07-23T03:07:35;16.10;99.90
51725;DHT22;37801;53.224;6.552;2022-07-23T03:10:01;16.00;99.90
51725;DHT22;37801;53.224;6.552;2022-07-23T03:12:27;16.10;99.90
51725;DHT22;37801;53.224;6.552;2022-07-23T03:14:53;16.00;99.90
51725;DHT22;37801;53.224;6.552;2022-07-23T03:17:18;16.00;99.90
51725;DHT22;37801;53.224;6.552;2022-07-23T03:19:44;16.00;99.90
51725;DHT22;37801;53.224;6.552;2022-07-23T03:22:10;16.00;99.90
51725;DHT22;37801;53.224;6.552;2022-07-23T03:24:35;16.00;99.90
51725;DHT22;37801;53.224;6.552;2022-07-23T03:27:24;16.00;99.90
51725;DHT22;37801;53.224;6.552;2022-07-23T03:29:51;15.90;99.90
51725;DHT22;37801;53.224;6.552;2022-07-23T03:32:17;15.90;99.90
51725;DHT22;37801;53.224;6.552;2022-07-23T03:34:42;15.90;99.90
51725;DHT22;37801;53.224;6.552;2022-07-23T03:37:08;15.90;99.90
51725;DHT22;37801;53.224;6.552;2022-07-23T03:39:34;16.00;99.90
51725;DHT22;37801;53.224;6.552;2022-07-23T03:42:00;16.00;99.90
51725;DHT22;37801;53.224;6.552;2022-07-23T03:44:26;16.00;99.90
51725;DHT22;37801;53.224;6.552;2022-07-23T03:46:51;16.00;99.90
51725;DHT22;37801;53.224;6.552;2022-07-23T03:49:17;16.00;99.90
51725;DHT22;37801;53.224;6.552;2022-07-23T03:51:43;16.00;99.90
51725;DHT22;37801;53.224;6.552;2022-07-23T03:54:09;16.00;99.90
51725;DHT22;37801;53.224;6.552;2022-07-23T03:56:35;15.90;99.90
51725;DHT22;37801;53.224;6.552;2022-07-23T03:59:01;16.00;99.90
51725;DHT22;37801;53.224;6.552;2022-07-23T04:01:27;16.00;99.90
51725;DHT22;37801;53.224;6.552;2022-07-23T04:03:52;16.00;99.90
51725;DHT22;37801;53.224;6.552;2022-07-23T04:06:18;16.00;99.90
51725;DHT22;37801;53.224;6.552;2022-07-23T04:08:44;16.00;99.90
51725;DHT22;37801;53.224;6.552;2022-07-23T04:11:10;16.00;99.90
51725;DHT22;37801;53.224;6.552;2022-07-23T04:13:35;16.00;99.90
51725;DHT22;37801;53.224;6.552;2022-07-23T04:16:01;16.00;99.90
51725;DHT22;37801;53.224;6.552;2022-07-23T04:18:27;16.10;99.90
51725;DHT22;37801;53.224;6.552;2022-07-23T04:20:53;16.20;99.90
51725;DHT22;37801;53.224;6.552;2022-07-23T04:23:19;16.20;99.90
51725;DHT22;37801;53.224;6.552;2022-07-23T04:25:45;16.30;99.90
51725;DHT22;37801;53.224;6.552;2022-07-23T04:28:10;16.40;99.90
51725;DHT22;37801;53.224;6.552;2022-07-23T04:30:36;16.40;99.90
51725;DHT22;37801;53.224;6.552;2022-07-23T04:33:02;16.50;99.90
51725;DHT22;37801;53.224;6.552;2022-07-23T04:35:31;16.50;99.90
51725;DHT22;37801;53.224;6.552;2022-07-23T04:37:56;16.50;99.90
51725;DHT22;37801;53.224;6.552;2022-07-23T04:40:22;16.50;99.90
51725;DHT22;37801;53.224;6.552;2022-07-23T04:42:48;16.50;99.90
51725;DHT22;37801;53.224;6.552;2022-07-23T04:45:13;16.50;99.90
51725;DHT22;37801;53.224;6.552;2022-07-23T04:47:39;16.60;99.90
51725;DHT22;37801;53.224;6.552;2022-07-23T04:50:05;16.50;99.90
51725;DHT22;37801;53.224;6.552;2022-07-23T04:52:31;16.50;99.90
51725;DHT22;37801;53.224;6.552;2022-07-23T04:54:57;16.50;99.90
51725;DHT22;37801;53.224;6.552;2022-07-23T04:57:22;16.50;99.90
51725;DHT22;37801;53.224;6.552;2022-07-23T04:59:48;16.50;99.90
51725;DHT22;37801;53.224;6.552;2022-07-23T05:02:14;16.50;99.90
51725;DHT22;37801;53.224;6.552;2022-07-23T05:04:39;16.50;99.90
51725;DHT22;37801;53.224;6.552;2022-07-23T05:07:05;16.50;99.90
51725;DHT22;37801;53.224;6.552;2022-07-23T05:09:31;16.50;99.90
51725;DHT22;37801;53.224;6.552;2022-07-23T05:11:57;16.60;99.90
51725;DHT22;37801;53.224;6.552;2022-07-23T05:14:23;16.70;99.90
51725;DHT22;37801;53.224;6.552;2022-07-23T05:16:49;16.70;99.90
51725;DHT22;37801;53.224;6.552;2022-07-23T05:19:14;16.70;99.90
51725;DHT22;37801;53.224;6.552;2022-07-23T05:21:40;16.80;99.90
51725;DHT22;37801;53.224;6.552;2022-07-23T05:24:06;16.80;99.90
51725;DHT22;37801;53.224;6.552;2022-07-23T05:26:32;16.80;99.90
51725;DHT22;37801;53.224;6.552;2022-07-23T05:28:58;16.80;99.90
51725;DHT22;37801;53.224;6.552;2022-07-23T05:31:23;16.80;99.90
51725;DHT22;37801;53.224;6.552;2022-07-23T05:33:49;16.80;99.90
51725;DHT22;37801;53.224;6.552;2022-07-23T05:36:15;16.80;99.90
51725;DHT22;37801;53.224;6.552;2022-07-23T05:38:40;16.70;99.90
51725;DHT22;37801;53.224;6.552;2022-07-23T05:41:06;16.70;99.90
51725;DHT22;37801;53.224;6.552;2022-07-23T05:43:32;16.60;99.90
51725;DHT22;37801;53.224;6.552;2022-07-23T05:45:57;16.70;99.90
51725;DHT22;37801;53.224;6.552;2022-07-23T05:48:23;16.70;99.90
51725;DHT22;37801;53.224;6.552;2022-07-23T05:50:49;16.80;99.90
51725;DHT22;37801;53.224;6.552;2022-07-23T05:53:15;16.90;99.90
51725;DHT22;37801;53.224;6.552;2022-07-23T05:55:40;16.90;99.90
51725;DHT22;37801;53.224;6.552;2022-07-23T05:58:06;17.00;99.90
51725;DHT22;37801;53.224;6.552;2022-07-23T06:00:32;17.10;99.90
51725;DHT22;37801;53.224;6.552;2022-07-23T06:02:58;17.10;99.90
51725;DHT22;37801;53.224;6.552;2022-07-23T06:05:23;17.20;99.90
51725;DHT22;37801;53.224;6.552;2022-07-23T06:07:50;17.20;99.90
51725;DHT22;37801;53.224;6.552;2022-07-23T06:10:16;17.20;99.90
51725;DHT22;37801;53.224;6.552;2022-07-23T06:12:42;17.20;99.90
51725;DHT22;37801;53.224;6.552;2022-07-23T06:15:08;17.20;99.90
51725;DHT22;37801;53.224;6.552;2022-07-23T06:17:35;17.20;99.90
51725;DHT22;37801;53.224;6.552;2022-07-23T06:20:01;17.20;99.90
51725;DHT22;37801;53.224;6.552;2022-07-23T06:22:27;17.20;99.90
51725;DHT22;37801;53.224;6.552;2022-07-23T06:24:53;17.30;99.90
51725;DHT22;37801;53.224;6.552;2022-07-23T06:27:18;17.40;99.90
51725;DHT22;37801;53.224;6.552;2022-07-23T06:29:44;17.40;99.90
51725;DHT22;37801;53.224;6.552;2022-07-23T06:32:10;17.40;99.90
51725;DHT22;37801;53.224;6.552;2022-07-23T06:34:35;17.50;99.90
51725;DHT22;37801;53.224;6.552;2022-07-23T06:37:01;17.50;99.90
51725;DHT22;37801;53.224;6.552;2022-07-23T06:39:27;17.50;99.90
51725;DHT22;37801;53.224;6.552;2022-07-23T06:41:53;17.60;99.90
51725;DHT22;37801;53.224;6.552;2022-07-23T06:44:19;17.60;99.90
51725;DHT22;37801;53.224;6.552;2022-07-23T06:46:44;17.60;99.90
51725;DHT22;37801;53.224;6.552;2022-07-23T06:49:10;17.70;99.90
51725;DHT22;37801;53.224;6.552;2022-07-23T06:51:36;17.70;99.90
51725;DHT22;37801;53.224;6.552;2022-07-23T06:54:04;17.60;99.90
51725;DHT22;37801;53.224;6.552;2022-07-23T06:56:30;17.60;99.90
51725;DHT22;37801;53.224;6.552;2022-07-23T06:58:56;17.50;99.90
51725;DHT22;37801;53.224;6.552;2022-07-23T07:01:22;17.40;99.90
51725;DHT22;37801;53.224;6.552;2022-07-23T07:03:48;17.40;99.90
51725;DHT22;37801;53.224;6.552;2022-07-23T07:06:14;17.40;99.90
51725;DHT22;37801;53.224;6.552;2022-07-23T07:08:40;17.40;99.90
51725;DHT22;37801;53.224;6.552;2022-07-23T07:11:05;17.40;99.90
51725;DHT22;37801;53.224;6.552;2022-07-23T07:13:31;17.40;99.90
51725;DHT22;37801;53.224;6.552;2022-07-23T07:15:57;17.50;99.90
51725;DHT22;37801;53.224;6.552;2022-07-23T07:18:23;17.40;99.90
51725;DHT22;37801;53.224;6.552;2022-07-23T07:20:49;17.40;99.90
51725;DHT22;37801;53.224;6.552;2022-07-23T07:23:14;17.40;99.90
51725;DHT22;37801;53.224;6.552;2022-07-23T07:25:40;17.40;99.90
51725;DHT22;37801;53.224;6.552;2022-07-23T07:28:06;17.40;99.90
51725;DHT22;37801;53.224;6.552;2022-07-23T07:30:32;17.50;99.90
51725;DHT22;37801;53.224;6.552;2022-07-23T07:32:58;17.60;99.90
51725;DHT22;37801;53.224;6.552;2022-07-23T07:35:24;17.60;99.90
51725;DHT22;37801;53.224;6.552;2022-07-23T07:37:50;17.80;99.90
51725;DHT22;37801;53.224;6.552;2022-07-23T07:40:16;17.80;99.90
51725;DHT22;37801;53.224;6.552;2022-07-23T07:42:50;17.90;99.90
51725;DHT22;37801;53.224;6.552;2022-07-23T07:45:16;17.90;99.90
51725;DHT22;37801;53.224;6.552;2022-07-23T07:47:42;18.10;99.90
51725;DHT22;37801;53.224;6.552;2022-07-23T07:50:09;18.20;99.90
51725;DHT22;37801;53.224;6.552;2022-07-23T07:52:35;18.30;99.90
51725;DHT22;37801;53.224;6.552;2022-07-23T07:55:03;18.40;99.90
51725;DHT22;37801;53.224;6.552;2022-07-23T07:57:29;18.50;99.90
51725;DHT22;37801;53.224;6.552;2022-07-23T07:59:55;18.60;99.90
51725;DHT22;37801;53.224;6.552;2022-07-23T08:02:20;18.70;99.90
51725;DHT22;37801;53.224;6.552;2022-07-23T08:04:46;18.70;99.90
51725;DHT22;37801;53.224;6.552;2022-07-23T08:07:12;18.80;99.90
51725;DHT22;37801;53.224;6.552;2022-07-23T08:09:38;18.80;99.90
51725;DHT22;37801;53.224;6.552;2022-07-23T08:12:04;18.80;99.90
51725;DHT22;37801;53.224;6.552;2022-07-23T08:14:29;18.80;99.90
51725;DHT22;37801;53.224;6.552;2022-07-23T08:16:55;18.90;99.90
51725;DHT22;37801;53.224;6.552;2022-07-23T08:19:21;18.90;99.90
51725;DHT22;37801;53.224;6.552;2022-07-23T08:21:46;19.00;99.90
51725;DHT22;37801;53.224;6.552;2022-07-23T08:24:12;19.00;99.90
51725;DHT22;37801;53.224;6.552;2022-07-23T08:26:38;19.00;99.90
51725;DHT22;37801;53.224;6.552;2022-07-23T08:29:03;18.90;99.90
51725;DHT22;37801;53.224;6.552;2022-07-23T08:31:29;19.00;99.90
51725;DHT22;37801;53.224;6.552;2022-07-23T08:33:55;19.10;99.90
51725;DHT22;37801;53.224;6.552;2022-07-23T08:36:22;19.10;99.90
51725;DHT22;37801;53.224;6.552;2022-07-23T08:38:47;19.20;99.90
51725;DHT22;37801;53.224;6.552;2022-07-23T08:41:14;19.30;99.90
51725;DHT22;37801;53.224;6.552;2022-07-23T08:43:40;19.30;99.90
51725;DHT22;37801;53.224;6.552;2022-07-23T08:46:06;19.20;99.90
51725;DHT22;37801;53.224;6.552;2022-07-23T08:48:33;19.20;99.90
51725;DHT22;37801;53.224;6.552;2022-07-23T08:51:02;19.20;99.90
51725;DHT22;37801;53.224;6.552;2022-07-23T08:53:30;19.20;99.90
51725;DHT22;37801;53.224;6.552;2022-07-23T08:55:59;19.20;99.90
51725;DHT22;37801;53.224;6.552;2022-07-23T08:58:25;19.20;99.90
51725;DHT22;37801;53.224;6.552;2022-07-23T09:00:51;19.30;99.90
51725;DHT22;37801;53.224;6.552;2022-07-23T09:03:19;19.40;99.90
51725;DHT22;37801;53.224;6.552;2022-07-23T09:05:46;19.40;99.90
51725;DHT22;37801;53.224;6.552;2022-07-23T09:10:55;19.50;99.90
51725;DHT22;37801;53.224;6.552;2022-07-23T09:15:54;19.60;99.90
51725;DHT22;37801;53.224;6.552;2022-07-23T09:18:51;19.60;99.90
51725;DHT22;37801;53.224;6.552;2022-07-23T09:24:05;19.70;99.90
51725;DHT22;37801;53.224;6.552;2022-07-23T09:31:54;19.80;99.90
51725;DHT22;37801;53.224;6.552;2022-07-23T09:34:22;19.90;99.90
51725;DHT22;37801;53.224;6.552;2022-07-23T09:36:49;19.90;99.90
51725;DHT22;37801;53.224;6.552;2022-07-23T09:39:25;19.90;99.90
51725;DHT22;37801;53.224;6.552;2022-07-23T09:41:51;20.00;99.90
51725;DHT22;37801;53.224;6.552;2022-07-23T09:44:19;20.10;99.90
51725;DHT22;37801;53.224;6.552;2022-07-23T09:46:46;20.10;99.90
51725;DHT22;37801;53.224;6.552;2022-07-23T09:49:20;20.20;99.90
51725;DHT22;37801;53.224;6.552;2022-07-23T09:51:55;20.20;99.90
51725;DHT22;37801;53.224;6.552;2022-07-23T09:56:48;20.20;99.90
51725;DHT22;37801;53.224;6.552;2022-07-23T09:59:16;20.20;99.90
51725;DHT22;37801;53.224;6.552;2022-07-23T10:01:45;20.20;99.90
51725;DHT22;37801;53.224;6.552;2022-07-23T10:04:11;20.20;99.90
51725;DHT22;37801;53.224;6.552;2022-07-23T10:06:39;20.30;99.90
51725;DHT22;37801;53.224;6.552;2022-07-23T10:09:07;20.30;99.90
51725;DHT22;37801;53.224;6.552;2022-07-23T10:11:34;20.40;99.90
51725;DHT22;37801;53.224;6.552;2022-07-23T10:14:00;20.40;99.90
51725;DHT22;37801;53.224;6.552;2022-07-23T10:16:29;20.50;99.90
51725;DHT22;37801;53.224;6.552;2022-07-23T10:18:55;20.50;99.90
51725;DHT22;37801;53.224;6.552;2022-07-23T10:21:27;20.50;99.90
51725;DHT22;37801;53.224;6.552;2022-07-23T10:30:00;20.40;99.90
51725;DHT22;37801;53.224;6.552;2022-07-23T10:38:20;20.40;99.90
51725;DHT22;37801;53.224;6.552;2022-07-23T10:40:56;20.40;99.90
51725;DHT22;37801;53.224;6.552;2022-07-23T10:43:22;20.50;99.90
51725;DHT22;37801;53.224;6.552;2022-07-23T10:45:49;20.50;99.90
51725;DHT22;37801;53.224;6.552;2022-07-23T10:50:43;20.50;99.90
51725;DHT22;37801;53.224;6.552;2022-07-23T10:53:15;20.60;99.90
51725;DHT22;37801;53.224;6.552;2022-07-23T10:55:52;20.70;99.90
51725;DHT22;37801;53.224;6.552;2022-07-23T10:58:28;20.70;99.90
51725;DHT22;37801;53.224;6.552;2022-07-23T11:01:36;20.80;99.90
51725;DHT22;37801;53.224;6.552;2022-07-23T11:04:03;20.70;99.90
51725;DHT22;37801;53.224;6.552;2022-07-23T11:09:29;20.70;99.90
51725;DHT22;37801;53.224;6.552;2022-07-23T11:15:05;20.60;99.90
51725;DHT22;37801;53.224;6.552;2022-07-23T11:18:18;20.50;99.90
51725;DHT22;37801;53.224;6.552;2022-07-23T11:20:21;20.40;99.90
51725;DHT22;37801;53.224;6.552;2022-07-23T11:22:58;20.30;99.90
51725;DHT22;37801;53.224;6.552;2022-07-23T11:25:29;20.30;99.90
51725;DHT22;37801;53.224;6.552;2022-07-23T11:28:09;20.30;99.90
51725;DHT22;37801;53.224;6.552;2022-07-23T11:35:33;20.40;99.90
51725;DHT22;37801;53.224;6.552;2022-07-23T11:38:09;20.40;99.90
51725;DHT22;37801;53.224;6.552;2022-07-23T11:40:38;20.40;99.90
51725;DHT22;37801;53.224;6.552;2022-07-23T11:43:07;20.40;99.90
51725;DHT22;37801;53.224;6.552;2022-07-23T11:45:39;20.40;99.90
51725;DHT22;37801;53.224;6.552;2022-07-23T11:48:06;20.50;99.90
51725;DHT22;37801;53.224;6.552;2022-07-23T11:50:33;20.60;99.90
51725;DHT22;37801;53.224;6.552;2022-07-23T11:52:59;20.60;99.90
51725;DHT22;37801;53.224;6.552;2022-07-23T11:55:25;20.70;99.90
51725;DHT22;37801;53.224;6.552;2022-07-23T11:57:53;20.70;99.90
51725;DHT22;37801;53.224;6.552;2022-07-23T12:00:22;20.70;99.90
51725;DHT22;37801;53.224;6.552;2022-07-23T12:02:50;20.70;99.90
51725;DHT22;37801;53.224;6.552;2022-07-23T12:05:19;20.70;99.90
51725;DHT22;37801;53.224;6.552;2022-07-23T12:07:47;20.80;99.90
51725;DHT22;37801;53.224;6.552;2022-07-23T12:12:55;20.90;99.90
51725;DHT22;37801;53.224;6.552;2022-07-23T12:15:23;21.00;99.90
51725;DHT22;37801;53.224;6.552;2022-07-23T12:17:50;21.10;99.90
51725;DHT22;37801;53.224;6.552;2022-07-23T12:20:19;21.20;99.90
51725;DHT22;37801;53.224;6.552;2022-07-23T12:22:48;21.30;99.90
51725;DHT22;37801;53.224;6.552;2022-07-23T12:25:23;21.30;99.90
51725;DHT22;37801;53.224;6.552;2022-07-23T12:31:04;21.40;99.90
51725;DHT22;37801;53.224;6.552;2022-07-23T12:33:35;21.40;99.90
51725;DHT22;37801;53.224;6.552;2022-07-23T12:36:03;21.30;99.90
51725;DHT22;37801;53.224;6.552;2022-07-23T12:38:37;21.20;99.90
51725;DHT22;37801;53.224;6.552;2022-07-23T12:41:04;21.20;99.90
51725;DHT22;37801;53.224;6.552;2022-07-23T12:48:49;21.10;99.90
51725;DHT22;37801;53.224;6.552;2022-07-23T12:51:17;21.00;99.90
51725;DHT22;37801;53.224;6.552;2022-07-23T12:53:46;21.00;99.90
51725;DHT22;37801;53.224;6.552;2022-07-23T12:56:22;21.00;99.90
51725;DHT22;37801;53.224;6.552;2022-07-23T12:58:55;21.10;99.90
51725;DHT22;37801;53.224;6.552;2022-07-23T13:09:05;20.90;99.90
51725;DHT22;37801;53.224;6.552;2022-07-23T13:11:31;20.90;99.90
51725;DHT22;37801;53.224;6.552;2022-07-23T13:13:57;20.90;99.90
51725;DHT22;37801;53.224;6.552;2022-07-23T13:16:23;21.00;99.90
51725;DHT22;37801;53.224;6.552;2022-07-23T13:18:49;20.90;99.90
51725;DHT22;37801;53.224;6.552;2022-07-23T13:21:15;21.00;99.90
51725;DHT22;37801;53.224;6.552;2022-07-23T13:23:42;21.00;99.90
51725;DHT22;37801;53.224;6.552;2022-07-23T13:26:07;21.20;99.90
51725;DHT22;37801;53.224;6.552;2022-07-23T13:28:33;21.30;99.90
51725;DHT22;37801;53.224;6.552;2022-07-23T13:30:59;21.30;99.90
51725;DHT22;37801;53.224;6.552;2022-07-23T13:33:25;21.40;99.90
51725;DHT22;37801;53.224;6.552;2022-07-23T13:35:52;21.40;99.90
51725;DHT22;37801;53.224;6.552;2022-07-23T13:38:19;21.40;99.90
51725;DHT22;37801;53.224;6.552;2022-07-23T13:40:46;21.30;99.90
51725;DHT22;37801;53.224;6.552;2022-07-23T13:43:15;21.20;99.90
51725;DHT22;37801;53.224;6.552;2022-07-23T13:45:41;21.20;99.90
51725;DHT22;37801;53.224;6.552;2022-07-23T13:48:09;21.10;99.90
51725;DHT22;37801;53.224;6.552;2022-07-23T13:50:36;21.10;99.90
51725;DHT22;37801;53.224;6.552;2022-07-23T13:53:04;21.10;99.90
51725;DHT22;37801;53.224;6.552;2022-07-23T13:55:31;21.00;99.90
51725;DHT22;37801;53.224;6.552;2022-07-23T13:57:57;21.10;99.90
51725;DHT22;37801;53.224;6.552;2022-07-23T14:00:23;21.00;99.90
51725;DHT22;37801;53.224;6.552;2022-07-23T14:02:49;21.10;99.90
51725;DHT22;37801;53.224;6.552;2022-07-23T14:05:15;21.10;99.90
51725;DHT22;37801;53.224;6.552;2022-07-23T14:07:41;21.20;99.90
51725;DHT22;37801;53.224;6.552;2022-07-23T14:10:08;21.30;99.90
51725;DHT22;37801;53.224;6.552;2022-07-23T14:12:35;21.30;99.90
51725;DHT22;37801;53.224;6.552;2022-07-23T14:15:01;21.40;99.90
51725;DHT22;37801;53.224;6.552;2022-07-23T14:17:27;21.40;99.90
51725;DHT22;37801;53.224;6.552;2022-07-23T14:19:53;21.40;99.90
51725;DHT22;37801;53.224;6.552;2022-07-23T14:22:19;21.50;99.90
51725;DHT22;37801;53.224;6.552;2022-07-23T14:24:44;21.40;99.90
51725;DHT22;37801;53.224;6.552;2022-07-23T14:27:10;21.40;99.90
51725;DHT22;37801;53.224;6.552;2022-07-23T14:29:36;21.30;99.90
51725;DHT22;37801;53.224;6.552;2022-07-23T14:32:02;21.30;99.90
51725;DHT22;37801;53.224;6.552;2022-07-23T14:34:28;21.30;99.90
51725;DHT22;37801;53.224;6.552;2022-07-23T14:36:54;21.40;99.90
51725;DHT22;37801;53.224;6.552;2022-07-23T14:39:20;21.50;99.90
51725;DHT22;37801;53.224;6.552;2022-07-23T14:41:46;21.50;99.90
51725;DHT22;37801;53.224;6.552;2022-07-23T14:44:12;21.60;99.90
51725;DHT22;37801;53.224;6.552;2022-07-23T14:46:38;21.60;99.90
51725;DHT22;37801;53.224;6.552;2022-07-23T14:49:03;21.60;99.90
51725;DHT22;37801;53.224;6.552;2022-07-23T14:51:30;21.70;99.90
51725;DHT22;37801;53.224;6.552;2022-07-23T14:53:56;21.70;99.90
51725;DHT22;37801;53.224;6.552;2022-07-23T14:56:22;21.80;99.90
51725;DHT22;37801;53.224;6.552;2022-07-23T14:58:48;21.70;99.90
51725;DHT22;37801;53.224;6.552;2022-07-23T15:01:14;21.70;99.90
51725;DHT22;37801;53.224;6.552;2022-07-23T15:03:39;21.70;99.90
51725;DHT22;37801;53.224;6.552;2022-07-23T15:06:05;21.60;99.90
51725;DHT22;37801;53.224;6.552;2022-07-23T15:08:31;21.60;99.90
51725;DHT22;37801;53.224;6.552;2022-07-23T15:10:57;21.60;99.90
51725;DHT22;37801;53.224;6.552;2022-07-23T15:13:23;21.70;99.90
51725;DHT22;37801;53.224;6.552;2022-07-23T15:15:48;21.70;99.90
51725;DHT22;37801;53.224;6.552;2022-07-23T15:18:14;21.80;99.90
51725;DHT22;37801;53.224;6.552;2022-07-23T15:20:40;21.80;99.90
51725;DHT22;37801;53.224;6.552;2022-07-23T15:23:06;21.80;99.90
51725;DHT22;37801;53.224;6.552;2022-07-23T15:25:32;21.80;99.90
51725;DHT22;37801;53.224;6.552;2022-07-23T15:27:58;21.80;99.90
51725;DHT22;37801;53.224;6.552;2022-07-23T15:30:25;21.80;99.90
51725;DHT22;37801;53.224;6.552;2022-07-23T15:32:51;21.80;99.90
51725;DHT22;37801;53.224;6.552;2022-07-23T15:35:17;21.80;99.90
51725;DHT22;37801;53.224;6.552;2022-07-23T15:37:44;21.80;99.90
51725;DHT22;37801;53.224;6.552;2022-07-23T15:40:11;21.70;99.90
51725;DHT22;37801;53.224;6.552;2022-07-23T15:42:36;21.80;99.90
51725;DHT22;37801;53.224;6.552;2022-07-23T15:45:03;21.80;99.90
51725;DHT22;37801;53.224;6.552;2022-07-23T15:47:29;21.80;99.90
51725;DHT22;37801;53.224;6.552;2022-07-23T15:49:55;21.90;99.90
51725;DHT22;37801;53.224;6.552;2022-07-23T15:52:20;21.90;99.90
51725;DHT22;37801;53.224;6.552;2022-07-23T15:54:46;21.80;99.90
51725;DHT22;37801;53.224;6.552;2022-07-23T15:57:12;21.90;99.90
51725;DHT22;37801;53.224;6.552;2022-07-23T15:59:38;21.80;99.90
51725;DHT22;37801;53.224;6.552;2022-07-23T16:02:04;21.80;99.90
51725;DHT22;37801;53.224;6.552;2022-07-23T16:04:31;21.80;99.90
51725;DHT22;37801;53.224;6.552;2022-07-23T16:06:57;21.80;99.90
51725;DHT22;37801;53.224;6.552;2022-07-23T16:09:23;21.70;99.90
51725;DHT22;37801;53.224;6.552;2022-07-23T16:11:49;21.70;99.90
51725;DHT22;37801;53.224;6.552;2022-07-23T16:14:15;21.70;99.90
51725;DHT22;37801;53.224;6.552;2022-07-23T16:16:42;21.70;99.90
51725;DHT22;37801;53.224;6.552;2022-07-23T16:19:08;21.70;99.90
51725;DHT22;37801;53.224;6.552;2022-07-23T16:21:34;21.70;99.90
51725;DHT22;37801;53.224;6.552;2022-07-23T16:24:00;21.70;99.90
51725;DHT22;37801;53.224;6.552;2022-07-23T16:26:26;21.70;99.90
51725;DHT22;37801;53.224;6.552;2022-07-23T16:28:52;21.70;99.90